sensor_id;sensor_type;location;lat;lon;timestamp;temperature;humidity
33741;DHT22;20065;48.380;10.892;2023-03-01T00:00:53;2.10;99.90
33741;DHT22;20065;48.380;10.892;2023-03-01T00:03:39;2.10;99.90
33741;DHT22;20065;48.380;10.892;2023-03-01T00:06:26;2.10;99.90
33741;DHT22;20065;48.380;10.892;2023-03-01T00:09:16;2.20;99.90
33741;DHT22;20065;48.380;10.892;2023-03-01T00:12:03;2.50;99.90
33741;DHT22;20065;48.380;10.892;2023-03-01T00:14:49;2.10;99.90
33741;DHT22;20065;48.380;10.892;2023-03-01T00:17:35;2.10;99.90
33741;DHT22;20065;48.380;10.892;2023-03-01T00:20:21;2.20;99.90
33741;DHT22;20065;48.380;10.892;2023-03-01T00:23:07;2.20;99.90
33741;DHT22;20065;48.380;10.892;2023-03-01T00:25:54;2.20;99.90
33741;DHT22;20065;48.380;10.892;2023-03-01T00:28:41;2.20;99.90
33741;DHT22;20065;48.380;10.892;2023-03-01T00:31:29;2.20;99.90
33741;DHT22;20065;48.380;10.892;2023-03-01T00:34:15;2.10;99.90
33741;DHT22;20065;48.380;10.892;2023-03-01T00:37:01;2.00;99.90
33741;DHT22;20065;48.380;10.892;2023-03-01T00:39:51;2.10;99.90
33741;DHT22;20065;48.380;10.892;2023-03-01T00:42:37;2.10;99.90
33741;DHT22;20065;48.380;10.892;2023-03-01T00:45:24;2.10;99.90
33741;DHT22;20065;48.380;10.892;2023-03-01T00:48:10;2.10;99.90
33741;DHT22;20065;48.380;10.892;2023-03-01T00:50:56;2.20;99.90
33741;DHT22;20065;48.380;10.892;2023-03-01T00:53:43;2.20;99.90
33741;DHT22;20065;48.380;10.892;2023-03-01T00:56:29;2.20;99.90
33741;DHT22;20065;48.380;10.892;2023-03-01T00:59:16;2.20;99.90
33741;DHT22;20065;48.380;10.892;2023-03-01T01:02:02;2.10;99.90
33741;DHT22;20065;48.380;10.892;2023-03-01T01:04:48;2.20;99.90
33741;DHT22;20065;48.380;10.892;2023-03-01T01:07:35;2.10;99.90
33741;DHT22;20065;48.380;10.892;2023-03-01T01:10:21;2.20;99.90
33741;DHT22;20065;48.380;10.892;2023-03-01T01:13:07;2.20;99.90
33741;DHT22;20065;48.380;10.892;2023-03-01T01:15:53;2.20;99.90
33741;DHT22;20065;48.380;10.892;2023-03-01T01:18:40;2.30;99.90
33741;DHT22;20065;48.380;10.892;2023-03-01T01:21:28;2.30;99.90
33741;DHT22;20065;48.380;10.892;2023-03-01T01:24:14;2.30;99.90
33741;DHT22;20065;48.380;10.892;2023-03-01T01:27:01;2.30;99.90
33741;DHT22;20065;48.380;10.892;2023-03-01T01:29:47;2.20;99.90
33741;DHT22;20065;48.380;10.892;2023-03-01T01:32:33;2.10;99.90
33741;DHT22;20065;48.380;10.892;2023-03-01T01:35:19;2.20;99.90
33741;DHT22;20065;48.380;10.892;2023-03-01T01:38:05;2.20;99.90
33741;DHT22;20065;48.380;10.892;2023-03-01T01:40:52;2.20;99.90
33741;DHT22;20065;48.380;10.892;2023-03-01T01:43:44;2.20;99.90
33741;DHT22;20065;48.380;10.892;2023-03-01T01:46:32;2.20;99.90
33741;DHT22;20065;48.380;10.892;2023-03-01T01:49:26;2.30;99.90
33741;DHT22;20065;48.380;10.892;2023-03-01T01:52:31;2.30;99.90
33741;DHT22;20065;48.380;10.892;2023-03-01T01:55:22;2.30;99.90
33741;DHT22;20065;48.380;10.892;2023-03-01T01:58:12;2.30;99.90
33741;DHT22;20065;48.380;10.892;2023-03-01T02:01:00;2.20;99.90
33741;DHT22;20065;48.380;10.892;2023-03-01T02:03:48;2.30;99.90
33741;DHT22;20065;48.380;10.892;2023-03-01T02:06:38;2.30;99.90
33741;DHT22;20065;48.380;10.892;2023-03-01T02:09:26;2.30;99.90
33741;DHT22;20065;48.380;10.892;2023-03-01T02:12:16;2.30;99.90
33741;DHT22;20065;48.380;10.892;2023-03-01T02:15:03;2.20;99.90
33741;DHT22;20065;48.380;10.892;2023-03-01T02:17:50;2.20;99.90
33741;DHT22;20065;48.380;10.892;2023-03-01T02:23:29;2.10;99.90
33741;DHT22;20065;48.380;10.892;2023-03-01T02:26:40;2.10;99.90
33741;DHT22;20065;48.380;10.892;2023-03-01T02:29:28;2.10;99.90
33741;DHT22;20065;48.380;10.892;2023-03-01T02:32:14;2.00;99.90
33741;DHT22;20065;48.380;10.892;2023-03-01T02:35:02;2.00;99.90
33741;DHT22;20065;48.380;10.892;2023-03-01T02:37:52;2.00;99.90
33741;DHT22;20065;48.380;10.892;2023-03-01T02:40:42;2.00;99.90
33741;DHT22;20065;48.380;10.892;2023-03-01T02:43:32;2.00;99.90
33741;DHT22;20065;48.380;10.892;2023-03-01T02:46:22;2.00;99.90
33741;DHT22;20065;48.380;10.892;2023-03-01T02:49:22;1.80;99.90
33741;DHT22;20065;48.380;10.892;2023-03-01T02:55:18;1.80;99.90
33741;DHT22;20065;48.380;10.892;2023-03-01T02:58:04;1.80;99.90
33741;DHT22;20065;48.380;10.892;2023-03-01T03:00:52;1.80;99.90
33741;DHT22;20065;48.380;10.892;2023-03-01T03:03:40;1.80;99.90
33741;DHT22;20065;48.380;10.892;2023-03-01T03:06:27;1.80;99.90
33741;DHT22;20065;48.380;10.892;2023-03-01T03:09:14;1.80;99.90
33741;DHT22;20065;48.380;10.892;2023-03-01T03:12:01;1.80;99.90
33741;DHT22;20065;48.380;10.892;2023-03-01T03:14:47;1.80;99.90
33741;DHT22;20065;48.380;10.892;2023-03-01T03:17:33;1.70;99.90
33741;DHT22;20065;48.380;10.892;2023-03-01T03:20:22;1.70;99.90
33741;DHT22;20065;48.380;10.892;2023-03-01T03:23:09;1.70;99.90
33741;DHT22;20065;48.380;10.892;2023-03-01T03:25:55;1.50;99.90
33741;DHT22;20065;48.380;10.892;2023-03-01T03:28:41;1.50;99.90
33741;DHT22;20065;48.380;10.892;2023-03-01T03:31:27;1.50;99.90
33741;DHT22;20065;48.380;10.892;2023-03-01T03:34:14;1.50;99.90
33741;DHT22;20065;48.380;10.892;2023-03-01T03:37:03;1.50;99.90
33741;DHT22;20065;48.380;10.892;2023-03-01T03:40:10;1.60;99.90
33741;DHT22;20065;48.380;10.892;2023-03-01T03:43:02;1.60;99.90
33741;DHT22;20065;48.380;10.892;2023-03-01T03:45:50;1.60;99.90
33741;DHT22;20065;48.380;10.892;2023-03-01T03:48:43;1.50;99.90
33741;DHT22;20065;48.380;10.892;2023-03-01T03:51:30;1.60;99.90
33741;DHT22;20065;48.380;10.892;2023-03-01T03:54:16;1.60;99.90
33741;DHT22;20065;48.380;10.892;2023-03-01T03:57:02;1.60;99.90
33741;DHT22;20065;48.380;10.892;2023-03-01T03:59:49;1.60;99.90
33741;DHT22;20065;48.380;10.892;2023-03-01T04:02:35;1.60;99.90
33741;DHT22;20065;48.380;10.892;2023-03-01T04:05:21;1.60;99.90
33741;DHT22;20065;48.380;10.892;2023-03-01T04:08:08;1.60;99.90
33741;DHT22;20065;48.380;10.892;2023-03-01T04:11:00;1.60;99.90
33741;DHT22;20065;48.380;10.892;2023-03-01T04:14:06;1.60;99.90
33741;DHT22;20065;48.380;10.892;2023-03-01T04:16:52;1.50;99.90
33741;DHT22;20065;48.380;10.892;2023-03-01T04:19:38;1.50;99.90
33741;DHT22;20065;48.380;10.892;2023-03-01T04:22:25;1.40;99.90
33741;DHT22;20065;48.380;10.892;2023-03-01T04:25:26;1.90;99.90
33741;DHT22;20065;48.380;10.892;2023-03-01T04:28:14;1.50;99.90
33741;DHT22;20065;48.380;10.892;2023-03-01T04:31:13;1.50;99.90
33741;DHT22;20065;48.380;10.892;2023-03-01T04:34:11;1.40;99.90
33741;DHT22;20065;48.380;10.892;2023-03-01T04:37:47;1.40;99.90
33741;DHT22;20065;48.380;10.892;2023-03-01T04:40:51;1.40;99.90
33741;DHT22;20065;48.380;10.892;2023-03-01T04:43:37;1.80;99.90
33741;DHT22;20065;48.380;10.892;2023-03-01T04:46:24;1.60;99.90
33741;DHT22;20065;48.380;10.892;2023-03-01T04:49:11;1.70;99.90
33741;DHT22;20065;48.380;10.892;2023-03-01T04:51:57;1.40;99.90
33741;DHT22;20065;48.380;10.892;2023-03-01T04:54:50;1.30;99.90
33741;DHT22;20065;48.380;10.892;2023-03-01T04:57:36;1.20;99.90
33741;DHT22;20065;48.380;10.892;2023-03-01T05:00:23;1.10;99.90
33741;DHT22;20065;48.380;10.892;2023-03-01T05:03:09;1.00;99.90
33741;DHT22;20065;48.380;10.892;2023-03-01T05:05:58;0.90;99.90
33741;DHT22;20065;48.380;10.892;2023-03-01T05:08:45;0.90;99.90
33741;DHT22;20065;48.380;10.892;2023-03-01T05:11:31;0.80;99.90
33741;DHT22;20065;48.380;10.892;2023-03-01T05:14:21;0.70;99.90
33741;DHT22;20065;48.380;10.892;2023-03-01T05:17:07;0.70;99.90
33741;DHT22;20065;48.380;10.892;2023-03-01T05:19:53;0.60;99.90
33741;DHT22;20065;48.380;10.892;2023-03-01T05:22:41;0.50;99.90
33741;DHT22;20065;48.380;10.892;2023-03-01T05:25:27;0.50;99.90
33741;DHT22;20065;48.380;10.892;2023-03-01T05:28:19;0.40;99.90
33741;DHT22;20065;48.380;10.892;2023-03-01T05:31:06;0.40;99.90
33741;DHT22;20065;48.380;10.892;2023-03-01T05:33:55;0.30;99.90
33741;DHT22;20065;48.380;10.892;2023-03-01T05:36:41;0.30;99.90
33741;DHT22;20065;48.380;10.892;2023-03-01T05:39:28;0.30;99.90
33741;DHT22;20065;48.380;10.892;2023-03-01T05:44:54;0.20;99.90
33741;DHT22;20065;48.380;10.892;2023-03-01T05:47:42;0.20;99.90
33741;DHT22;20065;48.380;10.892;2023-03-01T05:50:32;0.20;99.90
33741;DHT22;20065;48.380;10.892;2023-03-01T05:53:20;0.20;99.90
33741;DHT22;20065;48.380;10.892;2023-03-01T05:56:09;0.10;99.90
33741;DHT22;20065;48.380;10.892;2023-03-01T05:58:55;0.10;99.90
33741;DHT22;20065;48.380;10.892;2023-03-01T06:01:41;0.10;99.90
33741;DHT22;20065;48.380;10.892;2023-03-01T06:04:27;0.10;99.90
33741;DHT22;20065;48.380;10.892;2023-03-01T06:07:13;0.00;99.90
33741;DHT22;20065;48.380;10.892;2023-03-01T06:09:59;0.00;99.90
33741;DHT22;20065;48.380;10.892;2023-03-01T06:12:46;0.00;99.90
33741;DHT22;20065;48.380;10.892;2023-03-01T06:15:32;0.00;99.90
33741;DHT22;20065;48.380;10.892;2023-03-01T06:18:18;0.00;99.90
33741;DHT22;20065;48.380;10.892;2023-03-01T06:21:05;-0.10;99.90
33741;DHT22;20065;48.380;10.892;2023-03-01T06:23:52;-0.10;99.90
33741;DHT22;20065;48.380;10.892;2023-03-01T06:26:38;-0.10;99.90
33741;DHT22;20065;48.380;10.892;2023-03-01T06:29:24;0.00;99.90
33741;DHT22;20065;48.380;10.892;2023-03-01T06:32:10;0.00;99.90
33741;DHT22;20065;48.380;10.892;2023-03-01T06:34:57;0.00;99.90
33741;DHT22;20065;48.380;10.892;2023-03-01T06:37:45;0.00;99.90
33741;DHT22;20065;48.380;10.892;2023-03-01T06:40:34;0.10;99.90
33741;DHT22;20065;48.380;10.892;2023-03-01T06:43:21;0.10;99.90
33741;DHT22;20065;48.380;10.892;2023-03-01T06:46:08;0.30;99.90
33741;DHT22;20065;48.380;10.892;2023-03-01T06:48:54;0.30;99.90
33741;DHT22;20065;48.380;10.892;2023-03-01T06:51:40;0.30;99.90
33741;DHT22;20065;48.380;10.892;2023-03-01T06:54:26;0.30;99.90
33741;DHT22;20065;48.380;10.892;2023-03-01T06:57:12;0.40;99.90
33741;DHT22;20065;48.380;10.892;2023-03-01T06:59:58;0.40;99.90
33741;DHT22;20065;48.380;10.892;2023-03-01T07:02:45;0.50;99.90
33741;DHT22;20065;48.380;10.892;2023-03-01T07:05:32;0.50;99.90
33741;DHT22;20065;48.380;10.892;2023-03-01T07:08:19;0.50;99.90
33741;DHT22;20065;48.380;10.892;2023-03-01T07:11:05;0.60;99.90
33741;DHT22;20065;48.380;10.892;2023-03-01T07:13:51;0.70;99.90
33741;DHT22;20065;48.380;10.892;2023-03-01T07:16:37;0.80;99.90
33741;DHT22;20065;48.380;10.892;2023-03-01T07:19:24;0.90;99.90
33741;DHT22;20065;48.380;10.892;2023-03-01T07:22:10;1.00;99.90
33741;DHT22;20065;48.380;10.892;2023-03-01T07:24:56;1.00;99.90
33741;DHT22;20065;48.380;10.892;2023-03-01T07:27:42;1.00;99.90
33741;DHT22;20065;48.380;10.892;2023-03-01T07:30:28;1.00;99.90
33741;DHT22;20065;48.380;10.892;2023-03-01T07:33:14;1.20;99.90
33741;DHT22;20065;48.380;10.892;2023-03-01T07:36:02;1.30;99.90
33741;DHT22;20065;48.380;10.892;2023-03-01T07:38:49;1.30;99.90
33741;DHT22;20065;48.380;10.892;2023-03-01T07:41:35;1.40;99.90
33741;DHT22;20065;48.380;10.892;2023-03-01T07:44:21;1.30;99.90
33741;DHT22;20065;48.380;10.892;2023-03-01T07:47:07;1.40;99.90
33741;DHT22;20065;48.380;10.892;2023-03-01T07:49:53;1.50;99.90
33741;DHT22;20065;48.380;10.892;2023-03-01T07:52:39;1.60;99.90
33741;DHT22;20065;48.380;10.892;2023-03-01T07:55:26;1.70;99.90
33741;DHT22;20065;48.380;10.892;2023-03-01T07:58:12;1.80;99.90
33741;DHT22;20065;48.380;10.892;2023-03-01T08:01:04;1.90;99.90
33741;DHT22;20065;48.380;10.892;2023-03-01T08:03:50;1.90;99.90
33741;DHT22;20065;48.380;10.892;2023-03-01T08:06:37;1.90;99.90
33741;DHT22;20065;48.380;10.892;2023-03-01T08:09:23;1.90;99.90
33741;DHT22;20065;48.380;10.892;2023-03-01T08:12:10;1.90;99.90
33741;DHT22;20065;48.380;10.892;2023-03-01T08:14:56;2.00;99.90
33741;DHT22;20065;48.380;10.892;2023-03-01T08:17:42;2.00;99.90
33741;DHT22;20065;48.380;10.892;2023-03-01T08:20:29;2.10;99.90
33741;DHT22;20065;48.380;10.892;2023-03-01T08:23:15;2.10;99.90
33741;DHT22;20065;48.380;10.892;2023-03-01T08:26:20;1.90;99.90
33741;DHT22;20065;48.380;10.892;2023-03-01T08:29:06;1.90;99.90
33741;DHT22;20065;48.380;10.892;2023-03-01T08:31:52;2.00;99.90
33741;DHT22;20065;48.380;10.892;2023-03-01T08:34:39;2.10;99.90
33741;DHT22;20065;48.380;10.892;2023-03-01T08:37:25;2.10;99.90
33741;DHT22;20065;48.380;10.892;2023-03-01T08:40:12;2.10;99.90
33741;DHT22;20065;48.380;10.892;2023-03-01T08:42:59;2.20;99.90
33741;DHT22;20065;48.380;10.892;2023-03-01T08:45:47;2.30;99.90
33741;DHT22;20065;48.380;10.892;2023-03-01T08:48:34;2.40;99.90
33741;DHT22;20065;48.380;10.892;2023-03-01T08:51:20;2.60;99.90
33741;DHT22;20065;48.380;10.892;2023-03-01T08:54:10;2.60;99.90
33741;DHT22;20065;48.380;10.892;2023-03-01T08:56:57;2.70;99.90
33741;DHT22;20065;48.380;10.892;2023-03-01T08:59:44;2.70;99.90
33741;DHT22;20065;48.380;10.892;2023-03-01T09:02:31;2.80;99.90
33741;DHT22;20065;48.380;10.892;2023-03-01T09:05:17;2.80;99.90
33741;DHT22;20065;48.380;10.892;2023-03-01T09:08:03;2.70;99.90
33741;DHT22;20065;48.380;10.892;2023-03-01T09:10:49;2.80;99.90
33741;DHT22;20065;48.380;10.892;2023-03-01T09:13:36;2.80;99.90
33741;DHT22;20065;48.380;10.892;2023-03-01T09:16:22;2.80;99.90
33741;DHT22;20065;48.380;10.892;2023-03-01T09:19:09;2.90;99.90
33741;DHT22;20065;48.380;10.892;2023-03-01T09:21:55;2.90;99.90
33741;DHT22;20065;48.380;10.892;2023-03-01T09:24:41;3.10;99.90
33741;DHT22;20065;48.380;10.892;2023-03-01T09:27:28;3.10;99.90
33741;DHT22;20065;48.380;10.892;2023-03-01T09:30:14;3.20;99.90
33741;DHT22;20065;48.380;10.892;2023-03-01T09:33:00;3.50;99.90
33741;DHT22;20065;48.380;10.892;2023-03-01T09:35:46;3.40;99.90
33741;DHT22;20065;48.380;10.892;2023-03-01T09:38:34;3.40;99.90
33741;DHT22;20065;48.380;10.892;2023-03-01T09:47:29;4.30;99.90
33741;DHT22;20065;48.380;10.892;2023-03-01T09:50:18;4.60;99.90
33741;DHT22;20065;48.380;10.892;2023-03-01T09:53:16;4.70;99.90
33741;DHT22;20065;48.380;10.892;2023-03-01T09:59:19;8.30;99.90
33741;DHT22;20065;48.380;10.892;2023-03-01T10:10:53;13.50;87.70
33741;DHT22;20065;48.380;10.892;2023-03-01T10:16:52;14.30;84.50
33741;DHT22;20065;48.380;10.892;2023-03-01T10:19:45;15.00;84.30
33741;DHT22;20065;48.380;10.892;2023-03-01T10:22:32;16.20;81.80
33741;DHT22;20065;48.380;10.892;2023-03-01T10:25:47;16.60;77.10
33741;DHT22;20065;48.380;10.892;2023-03-01T10:31:27;17.10;74.90
33741;DHT22;20065;48.380;10.892;2023-03-01T10:34:32;17.20;73.50
33741;DHT22;20065;48.380;10.892;2023-03-01T10:37:21;17.20;75.00
33741;DHT22;20065;48.380;10.892;2023-03-01T10:40:09;17.40;73.60
33741;DHT22;20065;48.380;10.892;2023-03-01T10:42:58;17.40;73.10
33741;DHT22;20065;48.380;10.892;2023-03-01T10:45:45;17.00;73.60
33741;DHT22;20065;48.380;10.892;2023-03-01T10:48:31;16.90;73.90
33741;DHT22;20065;48.380;10.892;2023-03-01T10:51:17;16.60;74.60
33741;DHT22;20065;48.380;10.892;2023-03-01T10:54:19;16.50;75.30
33741;DHT22;20065;48.380;10.892;2023-03-01T10:57:05;15.30;76.30
33741;DHT22;20065;48.380;10.892;2023-03-01T11:00:14;14.50;80.60
33741;DHT22;20065;48.380;10.892;2023-03-01T11:03:11;15.60;79.40
33741;DHT22;20065;48.380;10.892;2023-03-01T11:09:20;16.90;73.90
33741;DHT22;20065;48.380;10.892;2023-03-01T11:12:14;16.50;73.90
33741;DHT22;20065;48.380;10.892;2023-03-01T11:15:02;15.40;76.50
33741;DHT22;20065;48.380;10.892;2023-03-01T11:17:49;15.20;78.00
33741;DHT22;20065;48.380;10.892;2023-03-01T11:20:36;14.50;79.80
33741;DHT22;20065;48.380;10.892;2023-03-01T11:23:23;13.60;82.10
33741;DHT22;20065;48.380;10.892;2023-03-01T11:26:12;12.20;84.50
33741;DHT22;20065;48.380;10.892;2023-03-01T11:29:05;11.50;89.50
33741;DHT22;20065;48.380;10.892;2023-03-01T11:31:55;11.40;87.00
33741;DHT22;20065;48.380;10.892;2023-03-01T11:41:26;12.30;86.50
33741;DHT22;20065;48.380;10.892;2023-03-01T11:44:21;13.40;85.90
33741;DHT22;20065;48.380;10.892;2023-03-01T11:50:44;16.20;80.40
33741;DHT22;20065;48.380;10.892;2023-03-01T11:53:59;17.30;76.20
33741;DHT22;20065;48.380;10.892;2023-03-01T11:57:11;16.90;74.20
33741;DHT22;20065;48.380;10.892;2023-03-01T12:00:07;16.10;75.40
33741;DHT22;20065;48.380;10.892;2023-03-01T12:09:36;14.00;82.20
33741;DHT22;20065;48.380;10.892;2023-03-01T12:12:41;13.50;83.00
33741;DHT22;20065;48.380;10.892;2023-03-01T12:15:41;13.80;84.00
33741;DHT22;20065;48.380;10.892;2023-03-01T12:25:36;13.60;83.40
33741;DHT22;20065;48.380;10.892;2023-03-01T12:31:58;13.10;85.80
33741;DHT22;20065;48.380;10.892;2023-03-01T12:38:32;12.10;87.20
33741;DHT22;20065;48.380;10.892;2023-03-01T12:41:51;12.80;87.10
33741;DHT22;20065;48.380;10.892;2023-03-01T12:45:12;11.80;87.50
33741;DHT22;20065;48.380;10.892;2023-03-01T12:51:17;11.10;89.40
33741;DHT22;20065;48.380;10.892;2023-03-01T12:54:14;10.40;90.70
33741;DHT22;20065;48.380;10.892;2023-03-01T12:57:20;9.60;91.90
33741;DHT22;20065;48.380;10.892;2023-03-01T13:00:38;9.20;93.10
33741;DHT22;20065;48.380;10.892;2023-03-01T13:15:43;8.30;94.50
33741;DHT22;20065;48.380;10.892;2023-03-01T13:18:31;8.30;95.10
33741;DHT22;20065;48.380;10.892;2023-03-01T13:21:30;8.30;95.60
33741;DHT22;20065;48.380;10.892;2023-03-01T13:24:38;8.20;95.40
33741;DHT22;20065;48.380;10.892;2023-03-01T13:27:25;8.20;95.30
33741;DHT22;20065;48.380;10.892;2023-03-01T13:39:31;7.90;96.40
33741;DHT22;20065;48.380;10.892;2023-03-01T13:42:35;8.00;96.40
33741;DHT22;20065;48.380;10.892;2023-03-01T13:45:42;8.10;96.10
33741;DHT22;20065;48.380;10.892;2023-03-01T13:48:30;8.00;96.30
33741;DHT22;20065;48.380;10.892;2023-03-01T13:51:21;7.80;96.90
33741;DHT22;20065;48.380;10.892;2023-03-01T13:54:12;7.70;96.90
33741;DHT22;20065;48.380;10.892;2023-03-01T13:57:01;7.60;96.90
33741;DHT22;20065;48.380;10.892;2023-03-01T13:59:48;7.50;97.60
33741;DHT22;20065;48.380;10.892;2023-03-01T14:02:34;7.50;97.70
33741;DHT22;20065;48.380;10.892;2023-03-01T14:05:21;7.40;98.00
33741;DHT22;20065;48.380;10.892;2023-03-01T14:08:30;7.40;98.30
33741;DHT22;20065;48.380;10.892;2023-03-01T14:18:32;7.50;97.60
33741;DHT22;20065;48.380;10.892;2023-03-01T14:21:22;7.60;98.80
33741;DHT22;20065;48.380;10.892;2023-03-01T14:24:20;7.60;98.10
33741;DHT22;20065;48.380;10.892;2023-03-01T14:27:13;7.70;98.30
33741;DHT22;20065;48.380;10.892;2023-03-01T14:30:24;7.70;98.40
33741;DHT22;20065;48.380;10.892;2023-03-01T14:33:32;7.80;97.90
33741;DHT22;20065;48.380;10.892;2023-03-01T14:36:28;7.70;98.00
33741;DHT22;20065;48.380;10.892;2023-03-01T14:39:44;7.70;97.60
33741;DHT22;20065;48.380;10.892;2023-03-01T14:42:35;7.60;98.40
33741;DHT22;20065;48.380;10.892;2023-03-01T14:45:50;7.60;98.70
33741;DHT22;20065;48.380;10.892;2023-03-01T14:49:01;7.50;98.50
33741;DHT22;20065;48.380;10.892;2023-03-01T14:52:21;7.40;98.70
33741;DHT22;20065;48.380;10.892;2023-03-01T14:59:21;7.40;98.80
33741;DHT22;20065;48.380;10.892;2023-03-01T15:02:13;7.30;99.00
33741;DHT22;20065;48.380;10.892;2023-03-01T15:05:08;7.20;99.20
33741;DHT22;20065;48.380;10.892;2023-03-01T15:07:55;7.20;99.20
33741;DHT22;20065;48.380;10.892;2023-03-01T15:10:56;7.20;99.40
33741;DHT22;20065;48.380;10.892;2023-03-01T15:13:43;7.30;99.60
33741;DHT22;20065;48.380;10.892;2023-03-01T15:16:34;7.20;99.70
33741;DHT22;20065;48.380;10.892;2023-03-01T15:19:27;7.20;99.60
33741;DHT22;20065;48.380;10.892;2023-03-01T15:22:17;7.20;99.70
33741;DHT22;20065;48.380;10.892;2023-03-01T15:25:04;7.30;99.90
33741;DHT22;20065;48.380;10.892;2023-03-01T15:27:51;7.20;99.90
33741;DHT22;20065;48.380;10.892;2023-03-01T15:30:38;7.20;99.90
33741;DHT22;20065;48.380;10.892;2023-03-01T15:39:37;7.00;99.90
33741;DHT22;20065;48.380;10.892;2023-03-01T15:48:17;7.10;99.90
33741;DHT22;20065;48.380;10.892;2023-03-01T15:51:14;7.20;99.90
33741;DHT22;20065;48.380;10.892;2023-03-01T15:54:13;7.20;99.90
33741;DHT22;20065;48.380;10.892;2023-03-01T15:57:22;7.20;99.90
33741;DHT22;20065;48.380;10.892;2023-03-01T16:00:13;7.10;99.90
33741;DHT22;20065;48.380;10.892;2023-03-01T16:03:04;7.10;99.90
33741;DHT22;20065;48.380;10.892;2023-03-01T16:05:51;7.00;99.90
33741;DHT22;20065;48.380;10.892;2023-03-01T16:08:38;7.00;99.90
33741;DHT22;20065;48.380;10.892;2023-03-01T16:11:24;7.00;99.90
33741;DHT22;20065;48.380;10.892;2023-03-01T16:14:10;6.90;99.90
33741;DHT22;20065;48.380;10.892;2023-03-01T16:16:56;6.90;99.90
33741;DHT22;20065;48.380;10.892;2023-03-01T16:19:42;7.00;99.90
33741;DHT22;20065;48.380;10.892;2023-03-01T16:22:31;6.90;99.90
33741;DHT22;20065;48.380;10.892;2023-03-01T16:25:19;6.90;99.90
33741;DHT22;20065;48.380;10.892;2023-03-01T16:28:06;6.80;99.90
33741;DHT22;20065;48.380;10.892;2023-03-01T16:30:56;6.70;99.90
33741;DHT22;20065;48.380;10.892;2023-03-01T16:33:42;6.70;99.90
33741;DHT22;20065;48.380;10.892;2023-03-01T16:36:28;6.70;99.90
33741;DHT22;20065;48.380;10.892;2023-03-01T16:39:14;6.70;99.90
33741;DHT22;20065;48.380;10.892;2023-03-01T16:42:00;6.70;99.90
33741;DHT22;20065;48.380;10.892;2023-03-01T16:44:47;6.60;99.90
33741;DHT22;20065;48.380;10.892;2023-03-01T16:47:33;6.50;99.90
33741;DHT22;20065;48.380;10.892;2023-03-01T16:50:19;6.50;99.90
33741;DHT22;20065;48.380;10.892;2023-03-01T16:53:06;6.50;99.90
33741;DHT22;20065;48.380;10.892;2023-03-01T16:55:58;6.50;99.90
33741;DHT22;20065;48.380;10.892;2023-03-01T16:58:44;6.50;99.90
33741;DHT22;20065;48.380;10.892;2023-03-01T17:01:31;6.50;99.90
33741;DHT22;20065;48.380;10.892;2023-03-01T17:04:23;6.60;99.90
33741;DHT22;20065;48.380;10.892;2023-03-01T17:07:09;6.60;99.90
33741;DHT22;20065;48.380;10.892;2023-03-01T17:09:55;6.70;99.90
33741;DHT22;20065;48.380;10.892;2023-03-01T17:12:48;6.70;99.90
33741;DHT22;20065;48.380;10.892;2023-03-01T17:15:41;6.60;99.90
33741;DHT22;20065;48.380;10.892;2023-03-01T17:18:27;6.60;99.90
33741;DHT22;20065;48.380;10.892;2023-03-01T17:21:13;6.60;99.90
33741;DHT22;20065;48.380;10.892;2023-03-01T17:24:00;6.70;99.90
33741;DHT22;20065;48.380;10.892;2023-03-01T17:26:46;6.70;99.90
33741;DHT22;20065;48.380;10.892;2023-03-01T17:29:33;6.70;99.90
33741;DHT22;20065;48.380;10.892;2023-03-01T17:32:19;6.80;99.90
33741;DHT22;20065;48.380;10.892;2023-03-01T17:35:06;6.70;99.90
33741;DHT22;20065;48.380;10.892;2023-03-01T17:37:53;6.60;99.90
33741;DHT22;20065;48.380;10.892;2023-03-01T17:40:40;6.40;99.90
33741;DHT22;20065;48.380;10.892;2023-03-01T17:43:27;6.30;99.90
33741;DHT22;20065;48.380;10.892;2023-03-01T17:46:13;6.20;99.90
33741;DHT22;20065;48.380;10.892;2023-03-01T17:48:59;6.10;99.90
33741;DHT22;20065;48.380;10.892;2023-03-01T17:51:46;6.10;99.90
33741;DHT22;20065;48.380;10.892;2023-03-01T17:54:32;6.10;99.90
33741;DHT22;20065;48.380;10.892;2023-03-01T17:57:18;6.10;99.90
33741;DHT22;20065;48.380;10.892;2023-03-01T18:00:06;6.00;99.90
33741;DHT22;20065;48.380;10.892;2023-03-01T18:03:00;5.90;99.90
33741;DHT22;20065;48.380;10.892;2023-03-01T18:05:47;5.90;99.90
33741;DHT22;20065;48.380;10.892;2023-03-01T18:08:33;5.80;99.90
33741;DHT22;20065;48.380;10.892;2023-03-01T18:11:22;5.70;99.90
33741;DHT22;20065;48.380;10.892;2023-03-01T18:14:08;5.70;99.90
33741;DHT22;20065;48.380;10.892;2023-03-01T18:16:55;5.70;99.90
33741;DHT22;20065;48.380;10.892;2023-03-01T18:19:41;5.70;99.90
33741;DHT22;20065;48.380;10.892;2023-03-01T18:22:31;5.70;99.90
33741;DHT22;20065;48.380;10.892;2023-03-01T18:25:18;5.60;99.90
33741;DHT22;20065;48.380;10.892;2023-03-01T18:28:04;5.50;99.90
33741;DHT22;20065;48.380;10.892;2023-03-01T18:30:58;5.50;99.90
33741;DHT22;20065;48.380;10.892;2023-03-01T18:33:45;5.40;99.90
33741;DHT22;20065;48.380;10.892;2023-03-01T18:36:35;5.30;99.90
33741;DHT22;20065;48.380;10.892;2023-03-01T18:39:22;5.30;99.90
33741;DHT22;20065;48.380;10.892;2023-03-01T18:42:08;5.20;99.90
33741;DHT22;20065;48.380;10.892;2023-03-01T18:44:54;5.20;99.90
33741;DHT22;20065;48.380;10.892;2023-03-01T18:47:44;5.10;99.90
33741;DHT22;20065;48.380;10.892;2023-03-01T18:50:30;5.10;99.90
33741;DHT22;20065;48.380;10.892;2023-03-01T18:53:19;5.00;99.90
33741;DHT22;20065;48.380;10.892;2023-03-01T18:56:07;5.00;99.90
33741;DHT22;20065;48.380;10.892;2023-03-01T18:58:53;5.00;99.90
33741;DHT22;20065;48.380;10.892;2023-03-01T19:01:39;4.90;99.90
33741;DHT22;20065;48.380;10.892;2023-03-01T19:04:25;4.80;99.90
33741;DHT22;20065;48.380;10.892;2023-03-01T19:07:12;4.80;99.90
33741;DHT22;20065;48.380;10.892;2023-03-01T19:09:58;4.80;99.90
33741;DHT22;20065;48.380;10.892;2023-03-01T19:12:44;4.70;99.90
33741;DHT22;20065;48.380;10.892;2023-03-01T19:15:30;4.70;99.90
33741;DHT22;20065;48.380;10.892;2023-03-01T19:18:17;4.60;99.90
33741;DHT22;20065;48.380;10.892;2023-03-01T19:21:08;4.50;99.90
33741;DHT22;20065;48.380;10.892;2023-03-01T19:23:59;4.50;99.90
33741;DHT22;20065;48.380;10.892;2023-03-01T19:26:47;4.50;99.90
33741;DHT22;20065;48.380;10.892;2023-03-01T19:29:33;4.50;99.90
33741;DHT22;20065;48.380;10.892;2023-03-01T19:32:20;4.40;99.90
33741;DHT22;20065;48.380;10.892;2023-03-01T19:35:07;4.30;99.90
33741;DHT22;20065;48.380;10.892;2023-03-01T19:37:53;4.30;99.90
33741;DHT22;20065;48.380;10.892;2023-03-01T19:40:42;4.30;99.90
33741;DHT22;20065;48.380;10.892;2023-03-01T19:43:28;4.20;99.90
33741;DHT22;20065;48.380;10.892;2023-03-01T19:46:15;4.20;99.90